ENT4792 HEMA-EPKT
Flight info
| Callsign | ENT4792 |
|---|---|
| Flight time | N/A |
| Altitude | 36000 |
| Route | MAK V730 MEMPO L300 LXR P751 KUNKI L321 REXUM M872 SOBAX DCT NOGLI L551 ANTAR DCT SOTIX DCT AKINA DCT RIGRO DCT ATFIR/N0443F380 DCT OVDOT DCT MEGIK DCT KEKED DCT LENOV |
| Aircraft | A320/M-SDE3FGHIRWY/LB1 |
Departure
| Time | 2026-05-08 16:18 |
|---|---|
| Airport | Marsa Alam International Airport (HEMA) |
Arrival
| Time | N/A |
|---|---|
| Airport | Katowice Wojciech Korfanty International Airport (EPKT) |
| Time | Latitude | Longitude | Altitude | Speed | Heading |
|---|---|---|---|---|---|
| 2026-05-08 15:34 | 25.55613 | 34.59018 | 226 ft | 0 kts | 59° |
| 2026-05-08 16:08 | 25.55612 | 34.59018 | 253 ft | 0 kts | 59° |
| 2026-05-08 16:11 | 25.55609 | 34.59011 | 253 ft | 4 kts | 59° |
| 2026-05-08 16:11 | 25.55596 | 34.58984 | 253 ft | 4 kts | 65° |
| 2026-05-08 16:11 | 25.55586 | 34.58957 | 253 ft | 4 kts | 77° |
| 2026-05-08 16:11 | 25.55584 | 34.58929 | 252 ft | 4 kts | 118° |
| 2026-05-08 16:12 | 25.55592 | 34.58917 | 252 ft | 1 kts | 149° |
| 2026-05-08 16:12 | 25.55593 | 34.58917 | 252 ft | 0 kts | 149° |
| 2026-05-08 16:14 | 25.55592 | 34.58917 | 252 ft | 1 kts | 149° |
| 2026-05-08 16:14 | 25.55563 | 34.58936 | 252 ft | 9 kts | 149° |
| 2026-05-08 16:14 | 25.55499 | 34.58977 | 252 ft | 12 kts | 150° |
| 2026-05-08 16:15 | 25.55408 | 34.59035 | 252 ft | 16 kts | 150° |
| 2026-05-08 16:15 | 25.55306 | 34.59100 | 253 ft | 17 kts | 150° |
| 2026-05-08 16:15 | 25.55210 | 34.59127 | 253 ft | 14 kts | 212° |
| 2026-05-08 16:15 | 25.55148 | 34.59028 | 253 ft | 18 kts | 238° |
| 2026-05-08 16:16 | 25.55062 | 34.59029 | 253 ft | 14 kts | 148° |
| 2026-05-08 16:16 | 25.54975 | 34.59084 | 253 ft | 16 kts | 150° |
| 2026-05-08 16:16 | 25.54863 | 34.59153 | 253 ft | 20 kts | 150° |
| 2026-05-08 16:16 | 25.54741 | 34.59231 | 252 ft | 21 kts | 149° |
| 2026-05-08 16:17 | 25.54626 | 34.59243 | 253 ft | 17 kts | 228° |
| 2026-05-08 16:17 | 25.54585 | 34.59168 | 254 ft | 17 kts | 243° |
| 2026-05-08 16:17 | 25.54654 | 34.59050 | 254 ft | 29 kts | 328° |
| 2026-05-08 16:17 | 25.55018 | 34.58823 | 254 ft | 89 kts | 330° |
| 2026-05-08 16:18 | 25.55701 | 34.58390 | 253 ft | 134 kts | 329° |
| 2026-05-08 16:18 | 25.56619 | 34.57808 | 359 ft | 162 kts | 333° |
| 2026-05-08 16:18 | 25.57603 | 34.57215 | 936 ft | 161 kts | 332° |
| 2026-05-08 16:18 | 25.58585 | 34.56593 | 1422 ft | 166 kts | 330° |
| 2026-05-08 16:19 | 25.59579 | 34.55950 | 1990 ft | 165 kts | 331° |
| 2026-05-08 16:19 | 25.60629 | 34.55278 | 2147 ft | 186 kts | 330° |
| 2026-05-08 16:19 | 25.61827 | 34.54496 | 2296 ft | 213 kts | 330° |
| 2026-05-08 16:19 | 25.63170 | 34.53614 | 2553 ft | 236 kts | 330° |
| 2026-05-08 16:20 | 25.64631 | 34.52657 | 3062 ft | 249 kts | 330° |
| 2026-05-08 16:20 | 25.66135 | 34.51675 | 3745 ft | 253 kts | 329° |
| 2026-05-08 16:20 | 25.67659 | 34.50670 | 4493 ft | 257 kts | 325° |
| 2026-05-08 16:20 | 25.68926 | 34.49265 | 5144 ft | 262 kts | 302° |
| 2026-05-08 16:21 | 25.69542 | 34.47349 | 5812 ft | 270 kts | 277° |
| 2026-05-08 16:21 | 25.69335 | 34.45272 | 6476 ft | 277 kts | 251° |
| 2026-05-08 16:21 | 25.68344 | 34.43422 | 7167 ft | 283 kts | 235° |
| 2026-05-08 16:21 | 25.67167 | 34.41667 | 7879 ft | 285 kts | 234° |
| 2026-05-08 16:22 | 25.65973 | 34.39902 | 8597 ft | 287 kts | 234° |
| 2026-05-08 16:22 | 25.64776 | 34.38131 | 9293 ft | 288 kts | 234° |
| 2026-05-08 16:22 | 25.63573 | 34.36346 | 9956 ft | 290 kts | 234° |
| 2026-05-08 16:22 | 25.62358 | 34.34538 | 10450 ft | 299 kts | 234° |
| 2026-05-08 16:23 | 25.61077 | 34.32630 | 10577 ft | 319 kts | 234° |
| 2026-05-08 16:23 | 25.59730 | 34.30620 | 10719 ft | 337 kts | 234° |
| 2026-05-08 16:23 | 25.58311 | 34.28508 | 11139 ft | 345 kts | 234° |
| 2026-05-08 16:23 | 25.56872 | 34.26362 | 11674 ft | 349 kts | 234° |
| 2026-05-08 16:24 | 25.55420 | 34.24197 | 12250 ft | 352 kts | 234° |
| 2026-05-08 16:24 | 25.53955 | 34.22014 | 12819 ft | 354 kts | 234° |
| 2026-05-08 16:24 | 25.52474 | 34.19815 | 13381 ft | 358 kts | 234° |
| 2026-05-08 16:24 | 25.50980 | 34.17598 | 13922 ft | 361 kts | 234° |
| 2026-05-08 16:25 | 25.49474 | 34.15364 | 14404 ft | 364 kts | 235° |
| 2026-05-08 16:25 | 25.47997 | 34.13077 | 14887 ft | 366 kts | 240° |
| 2026-05-08 16:25 | 25.46908 | 34.10521 | 15358 ft | 368 kts | 253° |
| 2026-05-08 16:25 | 25.46216 | 34.07795 | 15835 ft | 370 kts | 256° |
| 2026-05-08 16:26 | 25.45536 | 34.05038 | 16331 ft | 373 kts | 256° |
| 2026-05-08 16:26 | 25.44844 | 34.02257 | 16838 ft | 376 kts | 256° |
| 2026-05-08 16:26 | 25.44145 | 33.99457 | 17343 ft | 379 kts | 256° |
| 2026-05-08 16:26 | 25.43441 | 33.96640 | 17854 ft | 382 kts | 256° |
| 2026-05-08 16:27 | 25.42851 | 33.93776 | 18331 ft | 383 kts | 265° |
| 2026-05-08 16:27 | 25.42766 | 33.90835 | 18787 ft | 383 kts | 276° |
| 2026-05-08 16:27 | 25.43225 | 33.87940 | 19273 ft | 383 kts | 288° |
| 2026-05-08 16:27 | 25.44038 | 33.85135 | 19784 ft | 384 kts | 289° |
| 2026-05-08 16:28 | 25.44865 | 33.82322 | 20292 ft | 386 kts | 289° |
| 2026-05-08 16:28 | 25.45691 | 33.79490 | 20804 ft | 388 kts | 289° |
| 2026-05-08 16:28 | 25.46514 | 33.76640 | 21299 ft | 390 kts | 289° |
| 2026-05-08 16:28 | 25.47338 | 33.73772 | 21780 ft | 392 kts | 289° |
| 2026-05-08 16:29 | 25.48165 | 33.70893 | 22256 ft | 394 kts | 289° |
| 2026-05-08 16:29 | 25.49000 | 33.67981 | 22719 ft | 396 kts | 289° |